createdAt,value
2022-10-24T00:00:59.783Z,2.80
2022-10-24T00:02:02.111Z,2.53
2022-10-24T00:03:04.499Z,2.80
2022-10-24T00:04:07.670Z,2.55
2022-10-24T00:05:15.208Z,2.60
2022-10-24T00:06:19.565Z,2.25
2022-10-24T00:07:21.893Z,2.75
2022-10-24T00:08:24.412Z,2.55
2022-10-24T00:09:26.781Z,2.92
2022-10-24T00:10:29.162Z,2.60
2022-10-24T00:11:31.452Z,2.58
2022-10-24T00:12:33.904Z,3.17
2022-10-24T00:13:36.359Z,3.47
2022-10-24T00:14:38.733Z,2.40
2022-10-24T00:15:48.277Z,3.40
2022-10-24T00:16:50.798Z,2.92
2022-10-24T00:17:53.236Z,3.30
2022-10-24T00:18:55.616Z,3.63
2022-10-24T00:19:58.895Z,3.25
2022-10-24T00:21:01.282Z,2.72
2022-10-24T00:22:04.406Z,2.90
2022-10-24T00:23:06.759Z,3.10
2022-10-24T00:24:09.469Z,2.60
2022-10-24T00:25:11.856Z,2.60
2022-10-24T00:26:15.658Z,2.50
2022-10-24T00:27:18.474Z,2.83
2022-10-24T00:28:21.222Z,2.40
2022-10-24T00:29:24.731Z,2.97
2022-10-24T00:30:27.077Z,2.90
2022-10-24T00:31:29.815Z,2.67
2022-10-24T00:32:32.121Z,2.42
2022-10-24T00:33:34.728Z,2.80
2022-10-24T00:34:37.631Z,2.70
2022-10-24T00:35:39.898Z,2.70
2022-10-24T00:36:42.303Z,2.10
2022-10-24T00:37:45.018Z,2.10
2022-10-24T00:38:48.319Z,2.05
2022-10-24T00:39:50.678Z,2.00
2022-10-24T00:40:53.032Z,1.75
2022-10-24T00:41:58.805Z,2.55
2022-10-24T00:43:01.087Z,3.10
2022-10-24T00:44:27.209Z,3.17
2022-10-24T00:45:40.708Z,2.60
2022-10-24T00:46:48.468Z,2.63
2022-10-24T00:47:51.291Z,2.60
2022-10-24T00:48:54.954Z,2.63
2022-10-24T00:50:13.565Z,2.08
2022-10-24T00:51:18.621Z,2.85
2022-10-24T00:52:25.866Z,2.28
2022-10-24T00:53:32.377Z,2.78
2022-10-24T00:54:38.062Z,2.33
2022-10-24T00:55:40.590Z,2.13
2022-10-24T00:56:59.398Z,2.55
2022-10-24T00:58:02.557Z,2.08
2022-10-24T00:59:08.424Z,1.73
2022-10-24T01:00:16.063Z,2.00
2022-10-24T01:01:18.463Z,2.38
2022-10-24T01:02:21.775Z,1.70
2022-10-24T01:03:24.774Z,1.88
2022-10-24T01:04:27.084Z,1.85
2022-10-24T01:05:37.285Z,2.25
2022-10-24T01:06:47.350Z,2.38
2022-10-24T01:07:58.398Z,1.77
2022-10-24T01:09:21.780Z,2.22
2022-10-24T01:10:57.550Z,1.70
2022-10-24T01:12:38.415Z,2.20
2022-10-24T01:13:52.064Z,2.42
2022-10-24T01:14:54.301Z,2.30
2022-10-24T01:16:24.071Z,1.80
2022-10-24T01:17:37.042Z,1.95
2022-10-24T01:20:07.484Z,2.05
2022-10-24T01:21:24.745Z,1.42
2022-10-24T01:22:58.806Z,1.85
2022-10-24T01:24:15.785Z,2.17
2022-10-24T01:25:21.121Z,2.45
2022-10-24T01:26:57.067Z,2.17
2022-10-24T01:28:13.202Z,1.98
2022-10-24T01:29:49.566Z,2.22
2022-10-24T01:31:06.158Z,1.45
2022-10-24T01:32:21.316Z,1.70
2022-10-24T01:33:35.834Z,2.00
2022-10-24T01:34:50.496Z,2.03
2022-10-24T01:36:02.615Z,1.90
2022-10-24T01:37:16.386Z,2.00
2022-10-24T01:38:34.574Z,1.83
2022-10-24T01:39:46.192Z,1.83
2022-10-24T01:40:53.354Z,1.70
2022-10-24T01:41:57.677Z,1.90
2022-10-24T01:43:07.615Z,1.98
2022-10-24T01:44:44.355Z,2.05
2022-10-24T01:45:52.445Z,1.88
2022-10-24T01:47:30.555Z,1.70
2022-10-24T01:48:41.104Z,1.50
2022-10-24T01:49:47.705Z,2.08
2022-10-24T01:50:53.522Z,1.85
2022-10-24T01:51:59.658Z,2.00
2022-10-24T01:53:03.380Z,1.65
2022-10-24T01:54:06.016Z,1.90
2022-10-24T01:55:08.933Z,1.70
2022-10-24T01:56:11.278Z,1.35
2022-10-24T01:57:14.625Z,1.70
2022-10-24T01:58:16.942Z,1.73
2022-10-24T01:59:28.423Z,1.70
2022-10-24T02:00:30.973Z,1.55
2022-10-24T02:01:35.161Z,1.70
2022-10-24T02:02:43.815Z,2.25
2022-10-24T02:04:00.876Z,1.75
2022-10-24T02:05:06.079Z,1.90
2022-10-24T02:06:19.294Z,1.80
2022-10-24T02:07:23.406Z,1.60
2022-10-24T02:08:30.167Z,1.75
2022-10-24T02:09:35.091Z,1.50
2022-10-24T02:10:53.902Z,1.10
2022-10-24T02:11:58.551Z,2.30
2022-10-24T02:13:06.403Z,2.05
2022-10-24T02:14:16.943Z,1.80
2022-10-24T02:15:27.431Z,1.52
2022-10-24T02:16:29.914Z,1.57
2022-10-24T02:17:32.345Z,1.50
2022-10-24T02:18:35.297Z,1.40
2022-10-24T02:19:38.020Z,1.70
2022-10-24T02:20:53.776Z,1.55
2022-10-24T02:22:21.225Z,1.23
2022-10-24T02:23:43.817Z,1.13
2022-10-24T02:24:53.681Z,1.70
2022-10-24T02:26:00.168Z,1.45
2022-10-24T02:27:27.115Z,1.20
2022-10-24T02:28:34.926Z,1.75
2022-10-24T02:29:41.855Z,1.30
2022-10-24T02:30:51.915Z,1.80
2022-10-24T02:31:57.500Z,1.40
2022-10-24T02:33:01.658Z,1.30
2022-10-24T02:34:06.846Z,1.45
2022-10-24T02:35:12.041Z,1.20
2022-10-24T02:36:18.575Z,1.20
2022-10-24T02:37:22.176Z,1.20
2022-10-24T02:38:30.265Z,1.60
2022-10-24T02:39:34.634Z,1.58
2022-10-24T02:40:37.824Z,1.70
2022-10-24T02:41:42.810Z,1.60
2022-10-24T02:42:47.282Z,1.83
2022-10-24T02:43:52.102Z,1.20
2022-10-24T02:44:55.958Z,1.50
2022-10-24T02:45:59.081Z,1.70
2022-10-24T02:47:03.961Z,1.83
2022-10-24T02:48:11.360Z,1.40
2022-10-24T02:49:14.167Z,1.27
2022-10-24T02:50:17.058Z,1.40
2022-10-24T02:51:21.487Z,1.10
2022-10-24T02:52:25.090Z,1.27
2022-10-24T02:53:28.688Z,1.50
2022-10-24T02:54:31.081Z,1.20
2022-10-24T02:55:33.348Z,1.17
2022-10-24T02:56:39.776Z,2.00
2022-10-24T02:57:42.058Z,1.50
2022-10-24T02:58:44.339Z,1.33
2022-10-24T02:59:46.622Z,1.48
2022-10-24T03:00:48.989Z,1.20
2022-10-24T03:01:51.447Z,1.45
2022-10-24T03:02:53.835Z,1.45
2022-10-24T03:03:56.143Z,1.48
2022-10-24T03:04:58.508Z,1.50
2022-10-24T03:06:00.915Z,1.60
2022-10-24T03:07:03.377Z,1.30
2022-10-24T03:08:05.956Z,1.40
2022-10-24T03:09:08.716Z,1.20
2022-10-24T03:10:11.057Z,1.13
2022-10-24T03:11:13.459Z,1.83
2022-10-24T03:12:17.078Z,1.75
2022-10-24T03:13:19.433Z,1.45
2022-10-24T03:14:21.780Z,1.45
2022-10-24T03:15:24.650Z,1.02
2022-10-24T03:16:28.531Z,1.23
2022-10-24T03:17:30.882Z,1.30
2022-10-24T03:18:33.193Z,0.90
2022-10-24T03:19:35.502Z,1.00
2022-10-24T03:20:38.167Z,1.20
2022-10-24T03:21:41.552Z,1.23
2022-10-24T03:22:43.874Z,1.17
2022-10-24T03:23:46.337Z,1.38
2022-10-24T03:24:55.043Z,1.23
2022-10-24T03:25:59.020Z,1.55
2022-10-24T03:27:01.354Z,1.30
2022-10-24T03:28:04.007Z,1.35
2022-10-24T03:29:06.486Z,1.20
2022-10-24T03:30:10.075Z,1.02
2022-10-24T03:31:12.472Z,1.85
2022-10-24T03:32:14.790Z,1.33
2022-10-24T03:33:17.172Z,1.30
2022-10-24T03:34:19.520Z,1.13
2022-10-24T03:35:22.047Z,1.10
2022-10-24T03:36:24.889Z,0.93
2022-10-24T03:37:27.556Z,1.10
2022-10-24T03:38:29.906Z,1.25
2022-10-24T03:39:41.267Z,35.63
2022-10-24T03:41:45.755Z,58.85
2022-10-24T03:42:48.362Z,61.40
2022-10-24T03:43:50.747Z,37.17
2022-10-24T03:44:53.066Z,25.55
2022-10-24T03:45:55.395Z,17.00
2022-10-24T03:46:57.647Z,12.85
2022-10-24T03:48:00.080Z,10.30
2022-10-24T03:50:09.810Z,7.28
2022-10-24T03:51:12.214Z,6.82
2022-10-24T03:52:14.838Z,6.80
2022-10-24T03:53:17.135Z,7.47
2022-10-24T03:54:19.489Z,6.22
2022-10-24T03:55:22.288Z,4.82
2022-10-24T03:56:24.651Z,4.43
2022-10-24T03:57:26.994Z,4.28
2022-10-24T03:58:29.456Z,3.92
2022-10-24T03:59:31.810Z,3.28
2022-10-24T04:00:39.351Z,2.60
2022-10-24T04:01:42.267Z,2.95
2022-10-24T04:02:45.221Z,3.15
2022-10-24T04:03:47.776Z,2.30
2022-10-24T04:04:50.080Z,2.60
2022-10-24T04:05:52.866Z,2.63
2022-10-24T04:06:55.380Z,2.35
2022-10-24T04:07:57.706Z,2.55
2022-10-24T04:09:00.136Z,2.67
2022-10-24T04:10:02.565Z,2.75
2022-10-24T04:11:05.944Z,2.53
2022-10-24T04:12:08.362Z,3.33
2022-10-24T04:13:11.039Z,3.00
2022-10-24T04:14:13.755Z,3.00
2022-10-24T04:15:16.346Z,3.45
2022-10-24T04:16:19.993Z,2.80
2022-10-24T04:17:22.417Z,2.35
2022-10-24T04:18:24.943Z,2.10
2022-10-24T04:19:27.270Z,2.78
2022-10-24T04:20:30.397Z,6.60
2022-10-24T04:21:32.692Z,4.82
2022-10-24T04:22:35.188Z,3.72
2022-10-24T04:23:40.990Z,2.55
2022-10-24T04:24:43.362Z,3.20
2022-10-24T04:25:46.381Z,3.33
2022-10-24T04:26:49.023Z,3.72
2022-10-24T04:27:51.461Z,3.15
2022-10-24T04:28:53.778Z,2.60
2022-10-24T04:29:56.369Z,2.80
2022-10-24T04:30:58.784Z,2.75
2022-10-24T04:32:01.734Z,3.50
2022-10-24T04:33:04.293Z,2.72
2022-10-24T04:34:06.793Z,3.30
2022-10-24T04:35:09.407Z,2.38
2022-10-24T04:36:11.907Z,2.70
2022-10-24T04:37:14.450Z,2.60
2022-10-24T04:38:17.439Z,2.63
2022-10-24T04:39:19.789Z,2.22
2022-10-24T04:40:22.168Z,2.35
2022-10-24T04:41:24.495Z,2.40
2022-10-24T04:42:26.883Z,2.33
2022-10-24T04:43:29.153Z,2.67
2022-10-24T04:44:31.529Z,2.30
2022-10-24T04:45:33.810Z,2.33
2022-10-24T04:46:36.101Z,2.72
2022-10-24T04:47:38.520Z,2.78
2022-10-24T04:48:40.963Z,3.15
2022-10-24T04:49:43.405Z,2.40
2022-10-24T04:50:46.748Z,2.17
2022-10-24T04:51:49.157Z,2.05
2022-10-24T04:52:51.529Z,2.35
2022-10-24T04:53:53.859Z,2.10
2022-10-24T04:54:56.303Z,1.58
2022-10-24T04:55:58.662Z,2.65
2022-10-24T04:57:01.014Z,2.28
2022-10-24T04:58:04.587Z,2.20
2022-10-24T04:59:06.939Z,2.75
2022-10-24T05:00:09.746Z,5.45
2022-10-24T05:01:12.574Z,6.85
2022-10-24T05:02:15.080Z,5.18
2022-10-24T05:03:18.957Z,3.47
2022-10-24T05:04:22.060Z,4.15
2022-10-24T05:05:24.621Z,4.15
2022-10-24T05:06:26.945Z,4.22
2022-10-24T05:07:29.472Z,4.05
2022-10-24T05:08:32.075Z,3.40
2022-10-24T05:09:34.443Z,3.42
2022-10-24T05:10:36.914Z,4.00
2022-10-24T05:11:39.306Z,3.63
2022-10-24T05:12:42.333Z,3.30
2022-10-24T05:13:44.725Z,4.20
2022-10-24T05:14:47.237Z,2.63
2022-10-24T05:15:49.576Z,2.20
2022-10-24T05:16:51.906Z,2.45
2022-10-24T05:17:54.215Z,2.25
2022-10-24T05:18:56.535Z,2.35
2022-10-24T05:19:58.939Z,2.83
2022-10-24T05:21:01.426Z,2.45
2022-10-24T05:22:06.026Z,2.95
2022-10-24T05:23:11.155Z,2.00
2022-10-24T05:24:13.686Z,2.70
2022-10-24T05:25:16.068Z,2.53
2022-10-24T05:26:18.378Z,2.22
2022-10-24T05:27:24.479Z,2.22
2022-10-24T05:28:26.840Z,2.47
2022-10-24T05:29:29.197Z,2.70
2022-10-24T05:30:31.690Z,5.20
2022-10-24T05:31:34.154Z,47.25
2022-10-24T05:32:39.520Z,42.30
2022-10-24T05:33:42.148Z,39.13
2022-10-24T05:34:44.732Z,39.05
2022-10-24T05:35:47.044Z,29.73
2022-10-24T05:36:49.390Z,31.08
2022-10-24T05:37:51.730Z,24.05
2022-10-24T05:38:54.040Z,19.35
2022-10-24T05:39:56.309Z,14.02
2022-10-24T05:40:58.654Z,11.75
2022-10-24T05:42:00.942Z,9.80
2022-10-24T05:43:03.609Z,7.93
2022-10-24T05:44:05.952Z,8.07
2022-10-24T05:45:09.603Z,7.88
2022-10-24T05:46:11.867Z,7.68
2022-10-24T05:47:14.166Z,7.05
2022-10-24T05:48:16.675Z,7.63
2022-10-24T05:49:19.090Z,6.93
2022-10-24T05:50:21.806Z,6.82
2022-10-24T05:51:24.161Z,7.35
2022-10-24T05:52:26.495Z,6.38
2022-10-24T05:53:28.911Z,6.20
2022-10-24T05:54:42.455Z,5.78
2022-10-24T05:55:53.702Z,6.18
2022-10-24T05:56:56.016Z,6.30
2022-10-24T05:57:58.684Z,6.47
2022-10-24T05:59:01.077Z,6.78
2022-10-24T06:00:08.795Z,6.65
2022-10-24T06:01:14.122Z,6.05
2022-10-24T06:02:20.012Z,5.63
2022-10-24T06:03:22.826Z,5.82
2022-10-24T06:04:25.455Z,5.47
2022-10-24T06:05:28.133Z,6.13
2022-10-24T06:06:30.626Z,5.40
2022-10-24T06:07:33.031Z,6.18
2022-10-24T06:08:36.695Z,4.75
2022-10-24T06:09:40.963Z,5.13
2022-10-24T06:10:47.611Z,4.68
2022-10-24T06:11:49.959Z,6.10
2022-10-24T06:12:52.288Z,4.75
2022-10-24T06:13:54.553Z,5.85
2022-10-24T06:14:58.468Z,4.90
2022-10-24T06:16:00.977Z,5.15
2022-10-24T06:17:05.462Z,4.78
2022-10-24T06:18:08.030Z,5.32
2022-10-24T06:19:10.440Z,4.93
2022-10-24T06:20:12.780Z,5.45
2022-10-24T06:21:16.429Z,5.90
2022-10-24T06:22:19.544Z,5.57
2022-10-24T06:23:21.879Z,5.55
2022-10-24T06:24:24.190Z,4.80
2022-10-24T06:25:26.544Z,3.38
2022-10-24T06:26:28.829Z,3.85
2022-10-24T06:27:31.232Z,3.97
2022-10-24T06:28:33.520Z,3.55
2022-10-24T06:29:36.315Z,4.30
2022-10-24T06:30:40.789Z,4.80
2022-10-24T06:31:43.097Z,4.10
2022-10-24T06:32:45.771Z,5.05
2022-10-24T06:33:48.324Z,4.60
2022-10-24T06:34:50.961Z,83.38
2022-10-24T06:35:53.459Z,27.98
2022-10-24T06:36:55.837Z,14.02
2022-10-24T06:37:58.365Z,12.07
2022-10-24T06:39:00.616Z,11.35
2022-10-24T06:40:03.067Z,12.00
2022-10-24T06:41:10.757Z,11.07
2022-10-24T06:42:13.183Z,11.95
2022-10-24T06:43:19.452Z,12.88
2022-10-24T06:44:21.797Z,11.98
2022-10-24T06:45:24.507Z,11.20
2022-10-24T06:46:26.902Z,10.32
2022-10-24T06:47:29.234Z,9.18
2022-10-24T06:48:31.565Z,10.07
2022-10-24T06:49:33.954Z,9.85
2022-10-24T06:50:37.028Z,10.25
2022-10-24T06:51:40.207Z,9.30
2022-10-24T06:52:42.545Z,9.55
2022-10-24T06:53:44.830Z,8.75
2022-10-24T06:54:47.160Z,9.23
2022-10-24T06:55:49.477Z,9.20
2022-10-24T06:56:51.895Z,8.82
2022-10-24T06:57:54.213Z,8.57
2022-10-24T06:58:56.562Z,8.15
2022-10-24T06:59:58.871Z,8.65
2022-10-24T07:01:11.459Z,8.00
2022-10-24T07:02:15.558Z,8.55
2022-10-24T07:03:17.996Z,9.07
2022-10-24T07:04:20.393Z,7.85
2022-10-24T07:05:22.676Z,7.43
2022-10-24T07:06:28.826Z,7.72
2022-10-24T07:07:31.243Z,9.13
2022-10-24T07:08:33.500Z,7.55
2022-10-24T07:09:35.836Z,8.07
2022-10-24T07:10:38.109Z,8.85
2022-10-24T07:11:40.506Z,7.38
2022-10-24T07:12:43.762Z,7.85
2022-10-24T07:13:46.783Z,7.70
2022-10-24T07:14:49.067Z,7.53
2022-10-24T07:15:54.370Z,7.30
2022-10-24T07:16:56.797Z,7.38
2022-10-24T07:17:59.234Z,7.38
2022-10-24T07:19:01.553Z,6.90
2022-10-24T07:20:04.146Z,11.68
2022-10-24T07:21:09.279Z,12.60
2022-10-24T07:22:11.718Z,20.75
2022-10-24T07:23:14.965Z,30.63
2022-10-24T07:24:17.314Z,15.70
2022-10-24T07:25:19.747Z,9.77
2022-10-24T07:26:23.609Z,17.73
2022-10-24T07:27:25.960Z,17.60
2022-10-24T07:28:28.284Z,16.98
2022-10-24T07:29:30.700Z,16.15
2022-10-24T07:30:33.254Z,16.05
2022-10-24T07:31:36.712Z,15.23
2022-10-24T07:32:39.178Z,12.85
2022-10-24T07:33:41.921Z,14.05
2022-10-24T07:34:44.413Z,12.95
2022-10-24T07:35:46.860Z,12.73
2022-10-24T07:36:49.166Z,10.35
2022-10-24T07:37:52.031Z,10.98
2022-10-24T07:38:56.977Z,10.38
2022-10-24T07:39:59.459Z,8.43
2022-10-24T07:41:05.720Z,8.55
2022-10-24T07:42:08.131Z,8.85
2022-10-24T07:43:10.567Z,47.75
2022-10-24T07:44:13.054Z,21.90
2022-10-24T07:45:15.368Z,79.55
2022-10-24T07:46:18.753Z,47.25
2022-10-24T07:47:21.058Z,21.02
2022-10-24T07:48:24.035Z,21.20
2022-10-24T07:49:30.158Z,18.83
2022-10-24T07:50:42.926Z,18.58
2022-10-24T07:51:45.181Z,16.88
2022-10-24T07:52:47.508Z,16.90
2022-10-24T07:53:50.333Z,17.20
2022-10-24T07:54:55.742Z,16.23
2022-10-24T07:56:00.113Z,14.95
2022-10-24T07:57:02.441Z,15.73
2022-10-24T07:58:04.951Z,16.45
2022-10-24T07:59:09.673Z,15.93
2022-10-24T08:00:16.534Z,13.90
2022-10-24T08:01:21.791Z,14.35
2022-10-24T08:02:24.147Z,13.40
2022-10-24T08:03:26.476Z,13.80
2022-10-24T08:04:30.282Z,14.35
2022-10-24T08:05:32.657Z,13.48
2022-10-24T08:06:35.048Z,12.30
2022-10-24T08:07:38.235Z,12.50
2022-10-24T08:08:41.100Z,12.38
2022-10-24T08:09:46.922Z,12.75
2022-10-24T08:10:49.479Z,14.27
2022-10-24T08:11:51.932Z,15.43
2022-10-24T08:12:54.257Z,13.27
2022-10-24T08:13:57.265Z,11.93
2022-10-24T08:14:59.572Z,12.73
2022-10-24T08:16:02.890Z,12.98
2022-10-24T08:17:05.515Z,12.50
2022-10-24T08:18:07.838Z,13.23
2022-10-24T08:19:12.625Z,11.90
2022-10-24T08:20:15.024Z,12.57
2022-10-24T08:21:18.985Z,11.82
2022-10-24T08:22:21.359Z,12.55
2022-10-24T08:23:25.542Z,11.02
2022-10-24T08:24:28.542Z,11.65
2022-10-24T08:25:30.912Z,11.55
2022-10-24T08:26:33.289Z,11.80
2022-10-24T08:27:35.971Z,10.55
2022-10-24T08:28:38.496Z,11.50
2022-10-24T08:29:41.099Z,10.63
2022-10-24T08:30:43.467Z,10.32
2022-10-24T08:31:45.762Z,10.77
2022-10-24T08:32:48.170Z,10.50
2022-10-24T08:33:55.575Z,10.95
2022-10-24T08:34:58.188Z,11.05
2022-10-24T08:36:04.382Z,10.75
2022-10-24T08:37:06.796Z,10.90
2022-10-24T08:38:09.444Z,11.07
2022-10-24T08:39:11.929Z,11.30
2022-10-24T08:40:19.641Z,10.88
2022-10-24T08:41:37.269Z,11.02
2022-10-24T08:42:39.836Z,11.35
2022-10-24T08:43:42.292Z,11.18
2022-10-24T08:44:45.873Z,11.50
2022-10-24T08:46:13.442Z,10.93
2022-10-24T08:49:19.036Z,10.27
2022-10-24T08:50:33.555Z,10.32
2022-10-24T08:51:45.902Z,10.38
2022-10-24T08:53:08.574Z,10.43
2022-10-24T08:54:20.465Z,9.15
2022-10-24T08:55:51.687Z,5.75
2022-10-24T08:56:49.906Z,6.00
2022-10-24T08:57:55.932Z,5.53
2022-10-24T08:59:00.349Z,4.85
2022-10-24T09:00:12.835Z,5.13
2022-10-24T09:01:29.107Z,5.78
2022-10-24T09:02:37.763Z,5.47
2022-10-24T09:04:00.043Z,6.47
2022-10-24T09:05:14.951Z,6.20
2022-10-24T09:06:25.960Z,6.45
2022-10-24T09:07:28.688Z,7.43
2022-10-24T09:09:19.622Z,7.30
2022-10-24T09:10:38.505Z,8.55
2022-10-24T09:12:14.813Z,7.75
2022-10-24T09:13:17.730Z,8.93
2022-10-24T09:14:28.994Z,8.25
2022-10-24T09:15:31.605Z,8.05
2022-10-24T09:16:35.654Z,8.98
2022-10-24T09:17:38.559Z,8.73
2022-10-24T09:18:43.357Z,9.57
2022-10-24T09:20:01.405Z,8.55
2022-10-24T09:21:07.054Z,8.77
2022-10-24T09:22:11.981Z,8.35
2022-10-24T09:23:16.271Z,7.97
2022-10-24T09:24:30.584Z,8.73
2022-10-24T09:25:36.465Z,8.43
2022-10-24T09:26:40.342Z,8.43
2022-10-24T09:27:43.858Z,8.93
2022-10-24T09:28:46.504Z,6.15
2022-10-24T09:29:48.875Z,5.95
2022-10-24T09:30:52.353Z,10.55
2022-10-24T09:31:54.673Z,6.63
2022-10-24T09:32:59.329Z,6.43
2022-10-24T09:34:01.666Z,5.75
2022-10-24T09:35:11.797Z,7.18
2022-10-24T09:36:16.374Z,6.10
2022-10-24T09:37:42.460Z,7.00
2022-10-24T09:38:49.020Z,7.45
2022-10-24T09:40:06.851Z,7.47
2022-10-24T09:41:27.568Z,8.25
2022-10-24T09:42:30.310Z,7.72
2022-10-24T09:43:49.427Z,7.75
2022-10-24T09:44:51.767Z,6.93
2022-10-24T09:46:02.895Z,7.40
2022-10-24T09:47:19.948Z,7.35
2022-10-24T09:48:27.764Z,7.60
2022-10-24T09:49:35.987Z,8.23
2022-10-24T09:50:43.445Z,8.13
2022-10-24T09:52:26.491Z,7.85
2022-10-24T09:53:37.710Z,8.30
2022-10-24T09:54:40.026Z,7.43
2022-10-24T09:55:46.678Z,8.38
2022-10-24T09:56:56.001Z,7.45
2022-10-24T09:58:03.965Z,7.00
2022-10-24T09:59:18.330Z,7.78
2022-10-24T10:00:31.343Z,7.95
2022-10-24T10:01:33.716Z,7.40
2022-10-24T10:02:37.532Z,7.18
2022-10-24T10:03:40.389Z,7.53
2022-10-24T10:04:42.774Z,7.53
2022-10-24T10:05:49.983Z,7.15
2022-10-24T10:06:52.431Z,7.32
2022-10-24T10:07:54.863Z,7.55
2022-10-24T10:08:58.594Z,7.68
2022-10-24T10:10:06.529Z,7.90
2022-10-24T10:11:12.190Z,6.95
2022-10-24T10:12:26.707Z,7.32
2022-10-24T10:13:30.067Z,7.50
2022-10-24T10:14:40.236Z,7.70
2022-10-24T10:15:48.776Z,8.00
2022-10-24T10:17:02.581Z,7.57
2022-10-24T10:18:32.821Z,7.70
2022-10-24T10:19:38.642Z,6.70
2022-10-24T10:20:42.549Z,7.50
2022-10-24T10:22:27.135Z,7.90
2022-10-24T10:23:49.683Z,7.05
2022-10-24T10:24:52.715Z,6.68
2022-10-24T10:26:21.190Z,7.47
2022-10-24T10:27:38.946Z,6.97
2022-10-24T10:29:05.667Z,7.88
2022-10-24T10:30:14.998Z,5.53
2022-10-24T10:31:21.081Z,22.75
2022-10-24T10:32:32.395Z,60.28
2022-10-24T10:35:05.936Z,18.17
2022-10-24T10:36:22.180Z,12.82
2022-10-24T10:37:33.884Z,10.43
2022-10-24T10:38:44.415Z,7.47
2022-10-24T10:40:05.814Z,7.38
2022-10-24T10:41:18.580Z,9.68
2022-10-24T10:42:53.604Z,7.60
2022-10-24T10:44:34.611Z,5.32
2022-10-24T10:46:06.364Z,4.30
2022-10-24T10:47:42.994Z,4.75
2022-10-24T10:49:24.222Z,5.25
2022-10-24T10:51:00.538Z,6.23
2022-10-24T10:52:13.719Z,6.47
2022-10-24T10:53:34.820Z,7.72
2022-10-24T10:55:14.366Z,8.10
2022-10-24T10:56:19.828Z,7.82
2022-10-24T10:57:30.444Z,8.85
2022-10-24T10:58:56.265Z,8.10
2022-10-24T11:00:39.307Z,8.55
2022-10-24T11:02:00.487Z,7.63
2022-10-24T11:03:10.675Z,7.55
2022-10-24T11:04:38.317Z,8.52
2022-10-24T11:06:18.670Z,8.15
2022-10-24T11:07:32.492Z,7.20
2022-10-24T11:09:05.581Z,7.43
2022-10-24T11:10:20.735Z,7.10
2022-10-24T11:11:34.200Z,7.38
2022-10-24T11:12:40.788Z,7.38
2022-10-24T11:14:08.342Z,7.25
2022-10-24T11:15:16.781Z,6.82
2022-10-24T11:16:26.625Z,7.75
2022-10-24T11:17:37.224Z,6.95
2022-10-24T11:18:43.858Z,6.93
2022-10-24T11:19:56.556Z,7.40
2022-10-24T11:21:06.685Z,7.65
2022-10-24T11:22:17.249Z,7.38
2022-10-24T11:24:55.337Z,6.95
2022-10-24T11:26:17.672Z,7.75
2022-10-24T11:27:27.991Z,7.60
2022-10-24T11:28:46.207Z,7.65
2022-10-24T11:30:02.513Z,6.93
2022-10-24T11:31:18.786Z,6.70
2022-10-24T11:32:38.045Z,7.43
2022-10-24T11:33:47.640Z,6.53
2022-10-24T11:35:13.837Z,7.63
2022-10-24T11:36:33.969Z,6.85
2022-10-24T11:37:41.059Z,7.22
2022-10-24T11:38:50.205Z,7.60
2022-10-24T11:40:03.478Z,7.85
2022-10-24T11:41:31.054Z,7.32
2022-10-24T11:42:58.080Z,6.65
2022-10-24T11:44:11.371Z,7.07
2022-10-24T11:45:20.296Z,7.07
2022-10-24T11:46:30.541Z,7.35
2022-10-24T11:48:11.641Z,7.22
2022-10-24T11:49:33.010Z,7.60
2022-10-24T11:50:38.124Z,6.70
2022-10-24T11:51:50.150Z,7.00
2022-10-24T11:52:58.297Z,7.00
2022-10-24T11:54:24.300Z,7.30
2022-10-24T11:55:38.950Z,7.40
2022-10-24T11:56:51.683Z,7.03
2022-10-24T11:58:00.054Z,6.85
2022-10-24T11:59:05.210Z,6.85
2022-10-24T12:00:08.275Z,6.72
2022-10-24T12:01:34.268Z,6.93
2022-10-24T12:03:04.498Z,6.38
2022-10-24T12:04:28.656Z,7.07
2022-10-24T12:05:42.742Z,6.57
2022-10-24T12:06:59.161Z,6.55
2022-10-24T12:08:23.029Z,6.05
2022-10-24T12:09:59.950Z,7.35
2022-10-24T12:11:15.727Z,7.20
2022-10-24T12:12:25.623Z,7.00
2022-10-24T12:13:36.634Z,6.65
2022-10-24T12:14:57.116Z,6.18
2022-10-24T12:16:20.773Z,5.93
2022-10-24T12:17:28.858Z,6.60
2022-10-24T12:18:39.447Z,6.60
2022-10-24T12:19:44.258Z,6.55
2022-10-24T12:20:55.481Z,7.35
2022-10-24T12:22:04.488Z,5.10
2022-10-24T12:23:07.533Z,4.80
2022-10-24T12:24:26.851Z,3.97
2022-10-24T12:25:32.141Z,4.10
2022-10-24T12:26:35.823Z,4.18
2022-10-24T12:27:39.665Z,3.80
2022-10-24T12:28:43.538Z,3.65
2022-10-24T12:29:59.588Z,5.07
2022-10-24T12:31:15.562Z,4.60
2022-10-24T12:32:31.340Z,3.80
2022-10-24T12:33:33.763Z,4.00
2022-10-24T12:34:49.055Z,3.78
2022-10-24T12:35:58.047Z,3.13
2022-10-24T12:37:12.087Z,3.80
2022-10-24T12:38:18.604Z,3.55
2022-10-24T12:39:38.762Z,3.30
2022-10-24T12:40:56.417Z,2.70
2022-10-24T12:41:59.470Z,3.33
2022-10-24T12:43:01.781Z,3.50
2022-10-24T12:44:24.087Z,2.90
2022-10-24T12:45:32.183Z,3.67
2022-10-24T12:46:37.258Z,4.22
2022-10-24T12:48:03.842Z,3.20
2022-10-24T12:49:19.954Z,3.80
2022-10-24T12:50:26.004Z,4.57
2022-10-24T12:51:31.692Z,4.28
2022-10-24T12:52:33.947Z,5.07
2022-10-24T12:54:04.554Z,4.45
2022-10-24T12:55:29.295Z,4.03
2022-10-24T12:56:34.070Z,3.70
2022-10-24T12:57:39.087Z,3.97
2022-10-24T12:58:44.515Z,3.17
2022-10-24T12:59:57.839Z,3.25
2022-10-24T13:01:10.724Z,2.85
2022-10-24T13:02:16.342Z,3.47
2022-10-24T13:03:33.031Z,3.83
2022-10-24T13:04:35.599Z,3.10
2022-10-24T13:05:58.503Z,3.65
2022-10-24T13:07:15.961Z,2.72
2022-10-24T13:08:43.998Z,2.67
2022-10-24T13:09:54.967Z,2.63
2022-10-24T13:11:34.490Z,3.35
2022-10-24T13:13:04.017Z,2.30
2022-10-24T13:14:24.996Z,2.70
2022-10-24T13:15:48.354Z,2.88
2022-10-24T13:17:01.356Z,2.42
2022-10-24T13:18:28.552Z,2.58
2022-10-24T13:19:31.237Z,2.85
2022-10-24T13:20:50.084Z,2.30
2022-10-24T13:21:57.475Z,2.30
2022-10-24T13:23:11.903Z,2.53
2022-10-24T13:24:17.189Z,2.38
2022-10-24T13:25:34.648Z,2.78
2022-10-24T13:26:46.443Z,2.30
2022-10-24T13:28:22.083Z,2.55
2022-10-24T13:29:24.402Z,2.30
2022-10-24T13:30:27.473Z,2.42
2022-10-24T13:31:29.885Z,3.10
2022-10-24T13:32:35.924Z,3.67
2022-10-24T13:33:38.288Z,2.80
2022-10-24T13:34:50.535Z,2.95
2022-10-24T13:35:54.066Z,4.30
2022-10-24T13:37:02.589Z,2.92
2022-10-24T13:38:07.879Z,3.15
2022-10-24T13:39:16.188Z,2.78
2022-10-24T13:40:27.427Z,2.30
2022-10-24T13:43:03.773Z,3.13
2022-10-24T13:44:11.986Z,2.20
2022-10-24T13:45:30.475Z,2.60
2022-10-24T13:46:43.089Z,2.15
2022-10-24T13:47:50.316Z,2.05
2022-10-24T13:48:54.451Z,2.28
2022-10-24T13:50:11.536Z,2.53
2022-10-24T13:51:34.835Z,2.25
2022-10-24T13:52:49.452Z,1.90
2022-10-24T13:54:03.655Z,2.75
2022-10-24T13:55:11.726Z,2.17
2022-10-24T13:56:14.976Z,2.00
2022-10-24T13:57:59.094Z,1.83
2022-10-24T13:59:01.851Z,2.08
2022-10-24T14:00:18.271Z,2.00
2022-10-24T14:01:27.189Z,1.85
2022-10-24T14:02:33.683Z,3.22
2022-10-24T14:03:36.949Z,1.90
2022-10-24T14:04:47.148Z,1.70
2022-10-24T14:05:56.729Z,1.70
2022-10-24T14:07:05.852Z,1.85
2022-10-24T14:08:09.564Z,1.90
2022-10-24T14:09:11.921Z,2.08
2022-10-24T14:10:17.240Z,1.60
2022-10-24T14:11:30.129Z,1.83
2022-10-24T14:12:33.512Z,2.33
2022-10-24T14:14:00.315Z,1.70
2022-10-24T14:15:06.794Z,1.83
2022-10-24T14:16:10.200Z,2.67
2022-10-24T14:17:28.796Z,1.60
2022-10-24T14:18:32.576Z,2.15
2022-10-24T14:19:38.411Z,1.80
2022-10-24T14:20:41.930Z,1.73
2022-10-24T14:21:48.476Z,1.90
2022-10-24T14:22:51.039Z,1.83
2022-10-24T14:24:01.670Z,2.08
2022-10-24T14:25:04.308Z,1.92
2022-10-24T14:26:12.242Z,1.90
2022-10-24T14:27:15.230Z,2.05
2022-10-24T14:28:20.475Z,1.95
2022-10-24T14:29:27.530Z,1.70
2022-10-24T14:30:34.430Z,1.73
2022-10-24T14:31:37.953Z,1.65
2022-10-24T14:32:40.298Z,1.60
2022-10-24T14:33:45.560Z,2.17
2022-10-24T14:34:49.442Z,23.58
2022-10-24T14:35:56.791Z,45.08
2022-10-24T14:37:06.031Z,23.65
2022-10-24T14:38:14.871Z,33.60
2022-10-24T14:39:23.892Z,23.77
2022-10-24T14:40:26.685Z,18.00
2022-10-24T14:41:31.733Z,11.88
2022-10-24T14:42:34.729Z,8.35
2022-10-24T14:43:43.784Z,6.65
2022-10-24T14:44:49.425Z,4.93
2022-10-24T14:46:13.434Z,5.18
2022-10-24T14:47:29.641Z,4.38
2022-10-24T14:49:42.912Z,3.08
2022-10-24T14:50:47.492Z,3.83
2022-10-24T14:51:53.991Z,3.90
2022-10-24T14:52:57.089Z,3.88
2022-10-24T14:53:59.604Z,4.15
2022-10-24T14:55:18.534Z,3.22
2022-10-24T14:56:32.436Z,3.00
2022-10-24T14:57:37.623Z,3.58
2022-10-24T14:58:40.564Z,3.33
2022-10-24T14:59:45.443Z,3.35
2022-10-24T15:00:48.194Z,3.40
2022-10-24T15:02:21.152Z,3.65
2022-10-24T15:03:28.887Z,3.40
2022-10-24T15:04:43.482Z,6.25
2022-10-24T15:06:07.594Z,17.85
2022-10-24T15:07:37.568Z,7.82
2022-10-24T15:08:43.210Z,12.95
2022-10-24T15:10:15.715Z,7.10
2022-10-24T15:11:21.852Z,9.00